Tully, NY (13159)

3:35 AM EST on February 09, 2016 (GMT -0500)
APRSWXNET | | Change Station
CLOSE
Current Station
Personal Weather Station
Location: Apulia Station, NY
Elevation: 1298 ft
Nearby Weather Stations

Elev 1298 ft 42.80 °N, 76.09 °W | Updated 30 minutes ago

Snow
Snow
27 °F
Feels Like 27 °F
N
3
Wind Variable Wind from SSE
Gusts 8.0 mph

Today
High -- | Low -- °F
--% Chance of Precip.
Yesterday
High -- | Low -- °F
Precip. -- in
Pressure 29.56 in
Visibility 2.5 miles
Clouds Scattered Clouds 1100 ft
Scattered Clouds 1600 ft
Overcast 2500 ft
Windchill 27 °F
Dew Point 23 °F
Humidity 85%
Rainfall in
Snow Depth Not available.
7:10 AM 5:27 PM
New Moon, 1% visible
METAR KN03 090815Z AUTO 00000KT 2 1/2SM -SN SCT011 SCT016 OVC025 M02/M02 A2956 RMK AO2
Pressure 29.56 in
Visibility 2.5 miles
Clouds Scattered Clouds 1100 ft
Scattered Clouds 1600 ft
Overcast 2500 ft
Windchill 27 °F
Dew Point 23 °F
Humidity 85%
Rainfall in
Snow Depth Not available.
7:10 AM 5:27 PM
New Moon, 1% visible
METAR KN03 090815Z AUTO 00000KT 2 1/2SM -SN SCT011 SCT016 OVC025 M02/M02 A2956 RMK AO2

10-Day Weather Forecast

Almanac

Astronomy

Feb. 09, 2016 Rise Set
Actual Time
Civil Twilight
Nautical Twilight
Astronomical Twilight
Moon
Length of Visible Light
Length of Day
Tomorrow will be .
, % of the Moon is Illuminated

Today's Extremes

State Highs State Lows

Community

WunderPhotos

Upload Photos

1,891,571 photos uploaded!

WunderBlog® & News

Nearby

Air Quality

  Air Quality AQ Index Pollutant
Not available.

Snow Depth

Station Depth Elevation

Earthquake Activity

City Distance Mag. Time & Date
Minimum magnitude displayed is 2.5.

Coastal Water Temperatures

Place Temperature

Stations

Nearby Weather Stations

Station Location Temp. Windchill Dew Point Humidity Wind Precip. Elev Updated Type
                   

Watches & Warnings

There are currently no watches in effect.